Ashland, Oregon
Current Conditions -  °F | °C
As of 5:53 PM on Friday 24 Oct 2014 (Local Time) from KMFR Reporting Station
Clear Clear  
Wind Chill: 65°   Ceiling: Unl
Heat Index: 65°   Visibility: 10mi
Dew Point: 55°   Wind: 6mph
Humidity: 70%   Direction: 290°WNW
Pressure: 29.71"   Gusts: NA
Location:  42.2°N, 122.71°W
Report Text: KMFR 250053Z 29005KT 10SM CLR 18/13 A2971 RMK AO2 SLP057 T01830128
Loading
Personal Weather Stations






























Interactive Weather Map
Tropical Storm Tracking
New forecast layout! Learn more

10-Day Weather Forecast

Advertisements
Track Severe Weather on mobile